Juneau, AK

9:10 AM AKDT on April 28, 2017 (GMT -0800)
Juneau International | | Change Station

Elev 16 ft 58.35 °N, 134.58 °W | Updated 17 minutes ago

Rain
Rain
42 °F
Feels Like 34 °F
N
16
Wind Variable Wind from ESE

Today
High -- | Low -- °F
--% Chance of Precip.
Yesterday
High -- | Low -- °F
Precip. -- in
Pressure 30.25 in
Visibility 8.0 miles
Clouds Few 1200 ft
Mostly Cloudy 2800 ft
Overcast 4200 ft
Windchill 34 °F
Dew Point 40 °F
Humidity 92%
Rainfall 0.21 in
Snow Depth Not available.
5:10 AM 8:42 PM
Waxing Crescent, 7% visible
METAR PAJN 281653Z 12014KT 8SM -RA FEW012 BKN028 OVC042 06/04 A3025 RMK AO2 SLP244 P0000 T00560044
Pressure 30.25 in
Visibility 8.0 miles
Clouds Few 1200 ft
Mostly Cloudy 2800 ft
Overcast 4200 ft
Windchill 34 °F
Dew Point 40 °F
Humidity 92%
Rainfall 0.21 in
Snow Depth Not available.
5:10 AM 8:42 PM
Waxing Crescent, 7% visible
METAR PAJN 281653Z 12014KT 8SM -RA FEW012 BKN028 OVC042 06/04 A3025 RMK AO2 SLP244 P0000 T00560044

Get Severe Weather Alerts

Thanks for signing up!

Be on the lookout for a verification email in your inbox.

You'll start receiving the daily forecast at 8 AM.

×

10-Day Weather Forecast

Almanac

Astronomy

Apr. 28, 2017 Rise Set
Actual Time
Civil Twilight
Nautical Twilight
Astronomical Twilight
Moon
Length of Visible Light
Length of Day
Tomorrow will be .
, % of the Moon is Illuminated

Today's Extremes

State Highs State Lows

Community

WunderPhotos

WunderBlog® & News

Nearby

Air Quality

  Air Quality AQ Index Pollutant
Not available.

Snow Depth

Station Depth Elevation

Earthquake Activity

City Distance Mag. Time & Date
Minimum magnitude displayed is 2.5.

Coastal Water Temperatures

Place Temperature

Stations

Nearby Weather Stations

Station Location Temp. Windchill Dew Point Humidity Wind Precip. Elev Updated Type
                   

Watches & Warnings

There are currently no watches in effect.